createdAt,value
2024-03-12T00:03:13.427Z,20.88
2024-03-12T00:08:18.354Z,20.60
2024-03-12T00:13:22.365Z,20.45
2024-03-12T00:18:25.796Z,20.16
2024-03-12T00:23:31.002Z,19.84
2024-03-12T00:28:34.610Z,19.50
2024-03-12T00:33:38.061Z,19.25
2024-03-12T00:38:44.268Z,19.07
2024-03-12T00:43:47.926Z,18.84
2024-03-12T00:48:51.461Z,18.60
2024-03-12T00:53:56.643Z,18.33
2024-03-12T00:59:00.335Z,18.18
2024-03-12T01:04:03.446Z,17.88
2024-03-12T01:09:08.232Z,17.72
2024-03-12T01:14:11.361Z,17.60
2024-03-12T01:19:14.656Z,17.38
2024-03-12T01:24:19.269Z,17.32
2024-03-12T01:29:22.541Z,17.18
2024-03-12T01:34:25.568Z,16.93
2024-03-12T01:39:30.234Z,16.67
2024-03-12T01:44:33.233Z,16.55
2024-03-12T01:49:36.284Z,16.48
2024-03-12T01:54:40.883Z,16.28
2024-03-12T01:59:43.932Z,16.15
2024-03-12T02:04:46.936Z,16.10
2024-03-12T02:09:51.649Z,16.02
2024-03-12T02:14:54.679Z,16.02
2024-03-12T02:19:57.768Z,15.97
2024-03-12T02:25:02.587Z,16.06
2024-03-12T02:30:06.449Z,15.98
2024-03-12T02:35:10.224Z,16.07
2024-03-12T02:40:16.455Z,15.95
2024-03-12T02:45:20.624Z,15.80
2024-03-12T02:50:24.887Z,15.61
2024-03-12T02:55:32.328Z,15.49
2024-03-12T03:00:35.505Z,15.51
2024-03-12T03:05:38.741Z,15.35
2024-03-12T03:10:43.457Z,15.53
2024-03-12T03:15:47.811Z,15.41
2024-03-12T03:20:50.998Z,15.37
2024-03-12T03:25:55.606Z,15.13
2024-03-12T03:31:00.721Z,14.99
2024-03-12T03:36:04.513Z,14.99
2024-03-12T03:41:09.398Z,15.10
2024-03-12T03:46:13.000Z,15.09
2024-03-12T03:51:16.015Z,15.04
2024-03-12T03:56:20.930Z,14.97
2024-03-12T04:01:24.187Z,14.77
2024-03-12T04:06:27.247Z,14.69
2024-03-12T04:11:31.928Z,14.72
2024-03-12T04:16:34.971Z,14.52
2024-03-12T04:21:38.077Z,14.35
2024-03-12T04:26:42.888Z,14.26
2024-03-12T04:31:46.388Z,14.22
2024-03-12T04:36:49.543Z,14.02
2024-03-12T04:41:54.225Z,13.94
2024-03-12T04:46:57.360Z,13.98
2024-03-12T04:52:00.577Z,13.89
2024-03-12T04:57:05.311Z,13.81
2024-03-12T05:02:08.439Z,13.96
2024-03-12T05:07:11.476Z,13.83
2024-03-12T05:12:16.150Z,13.80
2024-03-12T05:17:19.202Z,13.86
2024-03-12T05:22:22.299Z,13.89
2024-03-12T05:27:27.008Z,13.90
2024-03-12T05:32:30.036Z,14.04
2024-03-12T05:37:33.181Z,14.05
2024-03-12T05:42:37.803Z,14.18
2024-03-12T05:47:40.912Z,14.08
2024-03-12T05:52:44.071Z,14.09
2024-03-12T05:57:48.674Z,14.27
2024-03-12T06:02:51.860Z,14.13
2024-03-12T06:07:54.864Z,14.15
2024-03-12T06:12:59.787Z,14.08
2024-03-12T06:18:03.245Z,14.00
2024-03-12T06:23:06.310Z,13.92
2024-03-12T06:28:11.155Z,13.78
2024-03-12T06:33:14.625Z,13.77
2024-03-12T06:38:17.828Z,13.68
2024-03-12T06:43:22.636Z,13.65
2024-03-12T06:48:25.865Z,13.47
2024-03-12T06:53:29.037Z,13.52
2024-03-12T06:58:33.664Z,13.46
2024-03-12T07:03:36.919Z,13.33
2024-03-12T07:08:40.007Z,13.34
2024-03-12T07:13:44.561Z,13.32
2024-03-12T07:18:48.029Z,13.30
2024-03-12T07:23:51.150Z,13.43
2024-03-12T07:28:55.747Z,13.43
2024-03-12T07:33:58.844Z,13.41
2024-03-12T07:39:02.086Z,13.32
2024-03-12T07:44:07.029Z,13.26
2024-03-12T07:49:12.413Z,13.27
2024-03-12T07:54:15.639Z,13.33
2024-03-12T07:59:22.665Z,13.29
2024-03-12T08:04:25.863Z,13.20
2024-03-12T08:09:29.087Z,13.41
2024-03-12T08:14:33.709Z,13.18
2024-03-12T08:19:36.931Z,13.28
2024-03-12T08:24:40.643Z,13.13
2024-03-12T08:29:45.308Z,13.03
2024-03-12T08:34:48.372Z,12.84
2024-03-12T08:39:51.694Z,12.82
2024-03-12T08:44:57.531Z,12.68
2024-03-12T08:50:00.717Z,12.52
2024-03-12T08:55:04.090Z,12.44
2024-03-12T09:00:10.678Z,12.37
2024-03-12T09:05:13.706Z,12.26
2024-03-12T09:10:16.821Z,12.06
2024-03-12T09:15:23.609Z,11.85
2024-03-12T09:20:28.097Z,11.61
2024-03-12T09:25:31.320Z,11.36
2024-03-12T09:30:36.028Z,11.42
2024-03-12T09:35:39.446Z,11.29
2024-03-12T09:40:42.996Z,11.11
2024-03-12T09:45:47.891Z,11.16
2024-03-12T09:50:51.554Z,10.95
2024-03-12T09:55:55.537Z,10.88
2024-03-12T10:01:00.203Z,10.81
2024-03-12T10:06:03.425Z,10.62
2024-03-12T10:11:06.473Z,10.46
2024-03-12T10:16:11.429Z,10.37
2024-03-12T10:21:23.162Z,10.24
2024-03-12T10:26:29.641Z,10.16
2024-03-12T10:31:34.211Z,10.12
2024-03-12T10:36:37.402Z,10.04
2024-03-12T10:41:41.117Z,9.85
2024-03-12T10:46:46.940Z,9.52
2024-03-12T10:51:50.113Z,9.33
2024-03-12T10:56:53.151Z,9.20
2024-03-12T11:01:57.895Z,9.00
2024-03-12T11:07:03.144Z,9.12
2024-03-12T11:12:06.631Z,9.12
2024-03-12T11:17:29.067Z,9.26
2024-03-12T11:22:32.454Z,9.21
2024-03-12T11:27:37.020Z,9.17
2024-03-12T11:32:44.331Z,9.18
2024-03-12T11:37:48.145Z,9.06
2024-03-12T11:42:52.199Z,8.87
2024-03-12T11:47:56.968Z,8.68
2024-03-12T11:53:14.719Z,8.01
2024-03-12T11:58:17.881Z,7.43
2024-03-12T12:03:22.652Z,7.40
2024-03-12T12:08:26.114Z,7.30
2024-03-12T12:13:29.585Z,7.34
2024-03-12T12:18:35.276Z,7.20
2024-03-12T12:23:38.663Z,7.43
2024-03-12T12:28:42.159Z,7.23
2024-03-12T12:33:49.537Z,7.11
2024-03-12T12:38:59.086Z,6.97
2024-03-12T12:44:09.864Z,7.08
2024-03-12T12:49:15.718Z,7.22
2024-03-12T12:54:22.382Z,7.29
2024-03-12T12:59:25.530Z,7.48
2024-03-12T13:04:30.151Z,7.79
2024-03-12T13:09:34.888Z,7.89
2024-03-12T13:14:38.666Z,7.99
2024-03-12T13:19:43.342Z,8.10
2024-03-12T13:24:46.408Z,8.40
2024-03-12T13:29:49.435Z,8.73
2024-03-12T13:34:54.033Z,9.23
2024-03-12T13:39:57.213Z,9.72
2024-03-12T13:45:00.348Z,10.07
2024-03-12T13:50:05.430Z,9.85
2024-03-12T13:55:09.190Z,10.11
2024-03-12T14:00:13.481Z,10.40
2024-03-12T14:05:18.859Z,10.75
2024-03-12T14:10:22.200Z,11.08
2024-03-12T14:15:25.596Z,11.13
2024-03-12T14:20:30.180Z,11.53
2024-03-12T14:25:33.221Z,11.70
2024-03-12T14:30:36.309Z,11.88
2024-03-12T14:35:41.105Z,13.15
2024-03-12T14:40:44.154Z,13.96
2024-03-12T14:45:47.752Z,13.15
2024-03-12T14:50:52.825Z,13.69
2024-03-12T14:55:56.165Z,13.72
2024-03-12T15:00:59.322Z,14.38
2024-03-12T15:06:04.086Z,15.55
2024-03-12T15:11:07.389Z,14.87
2024-03-12T15:16:10.743Z,16.27
2024-03-12T15:21:15.596Z,17.23
2024-03-12T15:26:18.654Z,15.65
2024-03-12T15:31:21.719Z,19.24
2024-03-12T15:36:26.329Z,19.54
2024-03-12T15:41:29.374Z,17.61
2024-03-12T15:46:32.392Z,17.78
2024-03-12T15:51:37.412Z,16.50
2024-03-12T15:56:40.494Z,16.52
2024-03-12T16:01:44.689Z,17.09
2024-03-12T16:06:49.398Z,16.08
2024-03-12T16:11:52.717Z,16.70
2024-03-12T16:16:55.741Z,16.83
2024-03-12T16:22:00.714Z,17.79
2024-03-12T16:27:03.898Z,15.61
2024-03-12T16:32:09.105Z,16.14
2024-03-12T16:37:14.153Z,18.51
2024-03-12T16:42:17.219Z,17.56
2024-03-12T16:47:20.269Z,17.89
2024-03-12T16:52:24.940Z,19.16
2024-03-12T16:57:28.579Z,19.39
2024-03-12T17:02:32.232Z,18.46
2024-03-12T17:07:37.357Z,18.07
2024-03-12T17:12:40.809Z,19.48
2024-03-12T17:17:44.908Z,18.08
2024-03-12T17:22:50.107Z,18.70
2024-03-12T17:27:53.568Z,19.96
2024-03-12T17:32:57.182Z,18.72
2024-03-12T17:38:04.210Z,19.47
2024-03-12T17:43:07.070Z,19.85
2024-03-12T17:48:11.701Z,18.16
2024-03-12T17:53:17.105Z,18.08
2024-03-12T17:58:22.856Z,17.97
2024-03-12T18:03:26.945Z,17.51
2024-03-12T18:08:37.058Z,19.06
2024-03-12T18:13:40.837Z,19.40
2024-03-12T18:18:43.880Z,18.17
2024-03-12T18:23:48.643Z,18.01
2024-03-12T18:28:51.669Z,19.45
2024-03-12T18:33:54.783Z,19.52
2024-03-12T18:38:59.332Z,19.85
2024-03-12T18:44:02.370Z,20.17
2024-03-12T18:49:05.942Z,19.45
2024-03-12T18:54:11.409Z,19.45
2024-03-12T18:59:15.226Z,20.29
2024-03-12T19:04:19.829Z,19.43
2024-03-12T19:09:25.525Z,20.32
2024-03-12T19:14:30.449Z,18.84
2024-03-12T19:19:33.831Z,20.15
2024-03-12T19:24:38.654Z,22.12
2024-03-12T19:29:41.795Z,22.93
2024-03-12T19:34:45.446Z,21.85
2024-03-12T19:39:51.211Z,22.20
2024-03-12T19:44:54.894Z,24.27
2024-03-12T19:49:58.442Z,23.45
2024-03-12T19:55:03.154Z,23.81
2024-03-12T20:00:07.798Z,22.36
2024-03-12T20:05:11.056Z,23.22
2024-03-12T20:10:16.264Z,23.67
2024-03-12T20:15:19.729Z,23.42
2024-03-12T20:20:22.887Z,21.79
2024-03-12T20:25:27.879Z,23.37
2024-03-12T20:30:31.221Z,24.42
2024-03-12T20:35:34.386Z,20.50
2024-03-12T20:40:39.085Z,22.19
2024-03-12T20:45:42.183Z,22.69
2024-03-12T20:50:45.335Z,23.33
2024-03-12T20:55:50.131Z,21.75
2024-03-12T21:00:53.283Z,24.74
2024-03-12T21:05:56.354Z,22.38
2024-03-12T21:11:00.961Z,22.00
2024-03-12T21:16:04.245Z,25.35
2024-03-12T21:21:07.306Z,25.93
2024-03-12T21:26:11.952Z,22.74
2024-03-12T21:31:14.978Z,23.56
2024-03-12T21:36:18.024Z,22.78
2024-03-12T21:41:22.644Z,21.59
2024-03-12T21:46:25.694Z,24.42
2024-03-12T21:51:28.749Z,23.00
2024-03-12T21:56:33.367Z,24.04
2024-03-12T22:01:36.486Z,25.63
2024-03-12T22:06:39.643Z,25.71
2024-03-12T22:11:44.350Z,22.20
2024-03-12T22:16:47.667Z,22.38
2024-03-12T22:21:51.474Z,22.05
2024-03-12T22:26:56.231Z,23.68
2024-03-12T22:31:59.252Z,23.78
2024-03-12T22:37:02.434Z,23.70
2024-03-12T22:42:08.327Z,23.48
2024-03-12T22:47:12.141Z,22.98
2024-03-12T22:52:15.688Z,21.67
2024-03-12T22:57:20.930Z,23.41
2024-03-12T23:02:24.533Z,23.40
2024-03-12T23:07:28.013Z,22.43
2024-03-12T23:12:32.676Z,23.85
2024-03-12T23:17:35.694Z,22.00
2024-03-12T23:22:38.803Z,22.24
2024-03-12T23:27:43.556Z,22.49
2024-03-12T23:32:46.876Z,22.83
2024-03-12T23:37:49.963Z,21.46
2024-03-12T23:42:54.870Z,21.74
2024-03-12T23:47:58.025Z,21.51
2024-03-12T23:53:01.141Z,20.16
2024-03-12T23:58:06.082Z,20.12
